ITY571 LSZH-LIRF
Flight info
| Callsign | ITY571 |
|---|---|
| Flight time | 1h 3m |
| Altitude | 37000 |
| Route | VEBIT T53 GERSA DCT SOSON DCT ODINA DCT EKPAL DCT TINKU DCT XIBIL |
| Aircraft | A20N/M-SDE2E3FGHIRWXY/LB1 |
Departure
| Time | 2026-05-05 16:04 |
|---|---|
| Airport | Zürich Airport (LSZH) |
Arrival
| Time | 2026-05-05 17:07 |
|---|---|
| Airport | Rome–Fiumicino Leonardo da Vinci International Airport (LIRF) |
| Time | Latitude | Longitude | Altitude | Speed | Heading |
|---|---|---|---|---|---|
| 2026-05-05 14:53 | 47.45411 | 8.55946 | 1406 ft | 0 kts | 186° |
| 2026-05-05 15:51 | 47.45433 | 8.55949 | 1406 ft | 4 kts | 186° |
| 2026-05-05 15:51 | 47.45458 | 8.55953 | 1411 ft | 2 kts | 186° |
| 2026-05-05 15:51 | 47.45480 | 8.55961 | 1410 ft | 4 kts | 224° |
| 2026-05-05 15:52 | 47.45490 | 8.55993 | 1415 ft | 4 kts | 271° |
| 2026-05-05 15:52 | 47.45490 | 8.56004 | 1407 ft | 0 kts | 276° |
| 2026-05-05 15:56 | 47.45490 | 8.56005 | 1407 ft | 0 kts | 276° |
| 2026-05-05 15:57 | 47.45490 | 8.56004 | 1407 ft | 0 kts | 276° |
| 2026-05-05 15:57 | 47.45496 | 8.55921 | 1407 ft | 15 kts | 276° |
| 2026-05-05 15:57 | 47.45510 | 8.55848 | 1412 ft | 0 kts | 320° |
| 2026-05-05 15:58 | 47.45516 | 8.55844 | 1416 ft | 3 kts | 330° |
| 2026-05-05 15:58 | 47.45549 | 8.55846 | 1410 ft | 7 kts | 12° |
| 2026-05-05 15:58 | 47.45604 | 8.55857 | 1413 ft | 9 kts | 4° |
| 2026-05-05 15:58 | 47.45633 | 8.55924 | 1410 ft | 9 kts | 91° |
| 2026-05-05 15:59 | 47.45626 | 8.56032 | 1410 ft | 12 kts | 95° |
| 2026-05-05 15:59 | 47.45619 | 8.56144 | 1411 ft | 12 kts | 95° |
| 2026-05-05 15:59 | 47.45608 | 8.56276 | 1412 ft | 15 kts | 97° |
| 2026-05-05 15:59 | 47.45596 | 8.56439 | 1414 ft | 17 kts | 95° |
| 2026-05-05 16:00 | 47.45585 | 8.56608 | 1416 ft | 4 kts | 96° |
| 2026-05-05 16:00 | 47.45584 | 8.56618 | 1417 ft | 2 kts | 96° |
| 2026-05-05 16:00 | 47.45582 | 8.56645 | 1417 ft | 4 kts | 97° |
| 2026-05-05 16:00 | 47.45577 | 8.56692 | 1418 ft | 6 kts | 98° |
| 2026-05-05 16:01 | 47.45573 | 8.56761 | 1421 ft | 8 kts | 94° |
| 2026-05-05 16:01 | 47.45568 | 8.56853 | 1420 ft | 11 kts | 94° |
| 2026-05-05 16:01 | 47.45567 | 8.56969 | 1420 ft | 8 kts | 74° |
| 2026-05-05 16:01 | 47.45571 | 8.56981 | 1421 ft | 0 kts | 66° |
| 2026-05-05 16:02 | 47.45571 | 8.56982 | 1421 ft | 1 kts | 66° |
| 2026-05-05 16:02 | 47.45601 | 8.57014 | 1423 ft | 7 kts | 15° |
| 2026-05-05 16:03 | 47.45649 | 8.56997 | 1424 ft | 9 kts | 338° |
| 2026-05-05 16:03 | 47.45665 | 8.56958 | 1424 ft | 1 kts | 273° |
| 2026-05-05 16:03 | 47.45692 | 8.56620 | 1416 ft | 72 kts | 274° |
| 2026-05-05 16:03 | 47.45768 | 8.55510 | 1406 ft | 145 kts | 275° |
| 2026-05-05 16:04 | 47.45892 | 8.53939 | 2077 ft | 154 kts | 277° |
| 2026-05-05 16:04 | 47.46037 | 8.52360 | 2933 ft | 155 kts | 275° |
| 2026-05-05 16:04 | 47.46154 | 8.50767 | 3684 ft | 158 kts | 274° |
| 2026-05-05 16:04 | 47.46244 | 8.49137 | 4431 ft | 159 kts | 270° |
| 2026-05-05 16:05 | 47.46118 | 8.47411 | 4857 ft | 183 kts | 251° |
| 2026-05-05 16:05 | 47.45378 | 8.45684 | 5012 ft | 221 kts | 224° |
| 2026-05-05 16:05 | 47.44144 | 8.43986 | 5032 ft | 258 kts | 224° |
| 2026-05-05 16:05 | 47.42870 | 8.42094 | 5030 ft | 259 kts | 227° |
| 2026-05-05 16:06 | 47.41689 | 8.40079 | 5082 ft | 261 kts | 231° |
| 2026-05-05 16:06 | 47.40577 | 8.37942 | 5558 ft | 264 kts | 233° |
| 2026-05-05 16:06 | 47.39518 | 8.35770 | 6528 ft | 264 kts | 234° |
| 2026-05-05 16:06 | 47.38540 | 8.33467 | 7527 ft | 266 kts | 242° |
| 2026-05-05 16:07 | 47.37691 | 8.31031 | 8558 ft | 268 kts | 242° |
| 2026-05-05 16:07 | 47.36828 | 8.28574 | 9532 ft | 271 kts | 241° |
| 2026-05-05 16:07 | 47.35944 | 8.26078 | 10354 ft | 279 kts | 241° |
| 2026-05-05 16:07 | 47.35004 | 8.23442 | 10750 ft | 301 kts | 241° |
| 2026-05-05 16:08 | 47.33996 | 8.20613 | 11181 ft | 320 kts | 241° |
| 2026-05-05 16:08 | 47.32951 | 8.17674 | 11969 ft | 324 kts | 241° |
| 2026-05-05 16:08 | 47.31905 | 8.14734 | 12880 ft | 326 kts | 241° |
| 2026-05-05 16:08 | 47.30739 | 8.11914 | 13709 ft | 329 kts | 230° |
| 2026-05-05 16:09 | 47.28984 | 8.09743 | 14472 ft | 334 kts | 210° |
| 2026-05-05 16:09 | 47.26762 | 8.08642 | 15180 ft | 343 kts | 189° |
| 2026-05-05 16:09 | 47.24355 | 8.08796 | 15923 ft | 353 kts | 170° |
| 2026-05-05 16:09 | 47.22063 | 8.10196 | 16630 ft | 364 kts | 150° |
| 2026-05-05 16:10 | 47.20138 | 8.12690 | 17339 ft | 375 kts | 134° |
| 2026-05-05 16:10 | 47.18650 | 8.15899 | 18052 ft | 382 kts | 124° |
| 2026-05-05 16:10 | 47.17277 | 8.19269 | 18710 ft | 385 kts | 123° |
| 2026-05-05 16:10 | 47.15932 | 8.22662 | 19374 ft | 387 kts | 123° |
| 2026-05-05 16:11 | 47.14583 | 8.26104 | 20014 ft | 390 kts | 123° |
| 2026-05-05 16:11 | 47.10492 | 8.36568 | 21861 ft | 398 kts | 123° |
| 2026-05-05 16:12 | 47.09138 | 8.40018 | 22425 ft | 401 kts | 123° |
| 2026-05-05 16:12 | 47.06291 | 8.47152 | 23571 ft | 406 kts | 128° |
| 2026-05-05 16:13 | 46.99479 | 8.53791 | 24927 ft | 397 kts | 172° |
| 2026-05-05 16:13 | 46.96744 | 8.54270 | 25384 ft | 397 kts | 178° |
| 2026-05-05 16:13 | 46.93986 | 8.54651 | 25823 ft | 399 kts | 177° |
| 2026-05-05 16:14 | 46.88409 | 8.55452 | 26526 ft | 404 kts | 178° |
| 2026-05-05 16:14 | 46.82788 | 8.56259 | 27500 ft | 408 kts | 178° |
| 2026-05-05 16:15 | 46.77122 | 8.57076 | 28246 ft | 413 kts | 178° |
| 2026-05-05 16:15 | 46.71364 | 8.57897 | 29046 ft | 418 kts | 178° |
| 2026-05-05 16:16 | 46.65551 | 8.58726 | 29777 ft | 421 kts | 179° |
| 2026-05-05 16:16 | 46.59684 | 8.59562 | 30478 ft | 425 kts | 179° |
| 2026-05-05 16:17 | 46.53775 | 8.60404 | 31223 ft | 427 kts | 179° |
| 2026-05-05 16:17 | 46.50818 | 8.60826 | 31698 ft | 425 kts | 179° |
| 2026-05-05 16:18 | 46.44939 | 8.61664 | 32509 ft | 423 kts | 180° |
| 2026-05-05 16:18 | 46.42051 | 8.62073 | 32887 ft | 422 kts | 180° |
| 2026-05-05 16:18 | 46.36212 | 8.62896 | 33642 ft | 419 kts | 180° |
| 2026-05-05 16:19 | 46.33312 | 8.63305 | 34037 ft | 418 kts | 180° |
| 2026-05-05 16:19 | 46.30425 | 8.63712 | 34297 ft | 418 kts | 180° |
| 2026-05-05 16:19 | 46.24607 | 8.64520 | 34727 ft | 420 kts | 180° |
| 2026-05-05 16:20 | 46.18782 | 8.65334 | 35175 ft | 421 kts | 180° |
| 2026-05-05 16:20 | 46.12945 | 8.66447 | 35612 ft | 428 kts | 172° |
| 2026-05-05 16:21 | 46.07362 | 8.69522 | 36103 ft | 439 kts | 157° |
| 2026-05-05 16:22 | 45.99600 | 8.76835 | 36718 ft | 445 kts | 152° |
| 2026-05-05 16:22 | 45.94427 | 8.81761 | 36996 ft | 445 kts | 152° |
| 2026-05-05 16:23 | 45.89280 | 8.86647 | 36992 ft | 443 kts | 152° |
| 2026-05-05 16:23 | 45.81580 | 8.93934 | 36992 ft | 444 kts | 152° |
| 2026-05-05 16:24 | 45.76422 | 8.98802 | 36988 ft | 443 kts | 152° |
| 2026-05-05 16:25 | 45.68680 | 9.06089 | 36989 ft | 444 kts | 152° |
| 2026-05-05 16:25 | 45.60941 | 9.13349 | 36984 ft | 445 kts | 152° |
| 2026-05-05 16:26 | 45.50541 | 9.23067 | 36975 ft | 446 kts | 152° |
| 2026-05-05 16:27 | 45.46211 | 9.27100 | 36975 ft | 447 kts | 152° |
| 2026-05-05 16:27 | 45.41002 | 9.31942 | 36972 ft | 448 kts | 152° |
| 2026-05-05 16:28 | 45.34925 | 9.37578 | 36965 ft | 448 kts | 152° |
| 2026-05-05 16:28 | 45.30564 | 9.41614 | 36969 ft | 447 kts | 152° |
| 2026-05-05 16:29 | 45.25365 | 9.46413 | 36963 ft | 447 kts | 152° |
| 2026-05-05 16:29 | 45.20142 | 9.51225 | 36965 ft | 448 kts | 152° |
| 2026-05-05 16:30 | 45.14911 | 9.56034 | 36964 ft | 448 kts | 153° |
| 2026-05-05 16:30 | 45.09675 | 9.60837 | 36959 ft | 448 kts | 153° |
| 2026-05-05 16:31 | 45.04429 | 9.65638 | 36960 ft | 449 kts | 153° |
| 2026-05-05 16:31 | 44.99185 | 9.70427 | 36957 ft | 449 kts | 153° |
| 2026-05-05 16:32 | 44.93962 | 9.75185 | 36954 ft | 450 kts | 153° |
| 2026-05-05 16:32 | 44.88660 | 9.80007 | 36952 ft | 450 kts | 153° |
| 2026-05-05 16:33 | 44.83415 | 9.84765 | 36956 ft | 451 kts | 153° |
| 2026-05-05 16:33 | 44.78129 | 9.89548 | 36959 ft | 452 kts | 153° |
| 2026-05-05 16:34 | 44.72816 | 9.94346 | 36965 ft | 454 kts | 153° |
| 2026-05-05 16:34 | 44.67432 | 9.99192 | 36970 ft | 464 kts | 153° |
| 2026-05-05 16:35 | 44.61973 | 10.04101 | 36977 ft | 467 kts | 153° |
| 2026-05-05 16:35 | 44.56610 | 10.08913 | 36972 ft | 469 kts | 153° |
| 2026-05-05 16:36 | 44.51109 | 10.13834 | 36986 ft | 469 kts | 154° |
| 2026-05-05 16:36 | 44.45344 | 10.17925 | 36991 ft | 460 kts | 165° |
| 2026-05-05 16:37 | 44.39390 | 10.21046 | 36993 ft | 460 kts | 165° |
| 2026-05-05 16:37 | 44.33393 | 10.24208 | 36992 ft | 460 kts | 165° |
| 2026-05-05 16:38 | 44.27397 | 10.27373 | 36998 ft | 461 kts | 166° |
| 2026-05-05 16:38 | 44.21381 | 10.30543 | 36988 ft | 461 kts | 166° |
| 2026-05-05 16:39 | 44.15413 | 10.33680 | 36988 ft | 461 kts | 166° |
| 2026-05-05 16:39 | 44.09402 | 10.36833 | 36996 ft | 461 kts | 166° |
| 2026-05-05 16:40 | 44.03378 | 10.39985 | 37004 ft | 463 kts | 166° |
| 2026-05-05 16:40 | 43.97345 | 10.43134 | 37006 ft | 464 kts | 166° |
| 2026-05-05 16:41 | 43.91291 | 10.46288 | 37004 ft | 464 kts | 166° |
| 2026-05-05 16:41 | 43.85239 | 10.49434 | 37001 ft | 465 kts | 166° |
| 2026-05-05 16:42 | 43.79302 | 10.52943 | 36997 ft | 475 kts | 154° |
| 2026-05-05 16:42 | 43.73777 | 10.58058 | 36994 ft | 478 kts | 152° |
| 2026-05-05 16:43 | 43.68274 | 10.63222 | 36706 ft | 473 kts | 152° |
| 2026-05-05 16:43 | 43.65566 | 10.65750 | 36436 ft | 465 kts | 152° |
| 2026-05-05 16:43 | 43.62883 | 10.68242 | 36036 ft | 466 kts | 153° |
| 2026-05-05 16:44 | 43.60196 | 10.70729 | 35483 ft | 470 kts | 153° |
| 2026-05-05 16:44 | 43.57455 | 10.73260 | 34932 ft | 475 kts | 153° |
| 2026-05-05 16:44 | 43.54682 | 10.75813 | 34410 ft | 483 kts | 153° |
| 2026-05-05 16:44 | 43.51869 | 10.78404 | 33862 ft | 486 kts | 153° |
| 2026-05-05 16:45 | 43.49063 | 10.80992 | 33266 ft | 485 kts | 152° |
| 2026-05-05 16:45 | 43.46302 | 10.83536 | 32688 ft | 484 kts | 152° |
| 2026-05-05 16:45 | 43.43495 | 10.86117 | 32117 ft | 485 kts | 152° |
| 2026-05-05 16:45 | 43.40680 | 10.88702 | 31557 ft | 487 kts | 152° |
| 2026-05-05 16:46 | 43.37855 | 10.91291 | 31009 ft | 489 kts | 151° |
| 2026-05-05 16:46 | 43.35021 | 10.93890 | 30472 ft | 488 kts | 151° |
| 2026-05-05 16:46 | 43.32210 | 10.96464 | 29919 ft | 484 kts | 151° |
| 2026-05-05 16:46 | 43.29424 | 10.99014 | 29300 ft | 478 kts | 151° |
| 2026-05-05 16:47 | 43.26673 | 11.01528 | 28698 ft | 472 kts | 151° |
| 2026-05-05 16:47 | 43.23948 | 11.04014 | 28115 ft | 467 kts | 151° |
| 2026-05-05 16:47 | 43.21246 | 11.06474 | 27539 ft | 464 kts | 150° |
| 2026-05-05 16:47 | 43.18569 | 11.08909 | 26966 ft | 460 kts | 150° |
| 2026-05-05 16:48 | 43.15914 | 11.11322 | 26411 ft | 455 kts | 150° |
| 2026-05-05 16:48 | 43.13322 | 11.13675 | 25875 ft | 451 kts | 150° |
| 2026-05-05 16:48 | 43.10719 | 11.16035 | 25341 ft | 447 kts | 150° |
| 2026-05-05 16:48 | 43.08137 | 11.18373 | 24818 ft | 442 kts | 149° |
| 2026-05-05 16:49 | 43.05583 | 11.20685 | 24301 ft | 438 kts | 149° |
| 2026-05-05 16:49 | 43.03047 | 11.22977 | 23798 ft | 435 kts | 149° |
| 2026-05-05 16:49 | 43.00532 | 11.25247 | 23234 ft | 430 kts | 149° |
| 2026-05-05 16:49 | 42.98055 | 11.27486 | 22840 ft | 423 kts | 149° |
| 2026-05-05 16:50 | 42.95596 | 11.29705 | 22589 ft | 424 kts | 149° |
| 2026-05-05 16:50 | 42.93120 | 11.31937 | 22312 ft | 426 kts | 149° |
| 2026-05-05 16:50 | 42.90656 | 11.34157 | 22043 ft | 423 kts | 149° |
| 2026-05-05 16:50 | 42.88211 | 11.36357 | 21784 ft | 420 kts | 149° |
| 2026-05-05 16:51 | 42.85802 | 11.38521 | 21438 ft | 418 kts | 149° |
| 2026-05-05 16:51 | 42.83346 | 11.40725 | 20992 ft | 416 kts | 149° |
| 2026-05-05 16:51 | 42.80980 | 11.42848 | 20738 ft | 410 kts | 149° |
| 2026-05-05 16:51 | 42.78598 | 11.44983 | 20486 ft | 410 kts | 149° |
| 2026-05-05 16:52 | 42.76210 | 11.47121 | 20216 ft | 410 kts | 149° |
| 2026-05-05 16:52 | 42.73824 | 11.49255 | 19679 ft | 409 kts | 149° |
| 2026-05-05 16:52 | 42.71474 | 11.51358 | 19368 ft | 400 kts | 149° |
| 2026-05-05 16:52 | 42.69151 | 11.53435 | 19135 ft | 400 kts | 150° |
| 2026-05-05 16:53 | 42.66811 | 11.55522 | 18894 ft | 401 kts | 150° |
| 2026-05-05 16:53 | 42.64477 | 11.57602 | 18474 ft | 401 kts | 150° |
| 2026-05-05 16:53 | 42.62169 | 11.59659 | 18025 ft | 394 kts | 150° |
| 2026-05-05 16:53 | 42.59877 | 11.61699 | 17426 ft | 391 kts | 150° |
| 2026-05-05 16:54 | 42.57615 | 11.63711 | 16838 ft | 388 kts | 150° |
| 2026-05-05 16:54 | 42.55365 | 11.65709 | 16259 ft | 385 kts | 150° |
| 2026-05-05 16:54 | 42.53138 | 11.67684 | 15701 ft | 381 kts | 150° |
| 2026-05-05 16:54 | 42.50918 | 11.69652 | 15149 ft | 379 kts | 149° |
| 2026-05-05 16:55 | 42.48725 | 11.71598 | 14623 ft | 376 kts | 150° |
| 2026-05-05 16:55 | 42.46534 | 11.73535 | 13840 ft | 380 kts | 150° |
| 2026-05-05 16:55 | 42.44330 | 11.75478 | 13087 ft | 381 kts | 149° |
| 2026-05-05 16:55 | 42.42124 | 11.77426 | 12508 ft | 376 kts | 149° |
| 2026-05-05 16:56 | 42.39939 | 11.79354 | 11925 ft | 372 kts | 149° |
| 2026-05-05 16:56 | 42.37781 | 11.81257 | 11369 ft | 368 kts | 149° |
| 2026-05-05 16:56 | 42.35643 | 11.83142 | 10811 ft | 365 kts | 149° |
| 2026-05-05 16:56 | 42.33520 | 11.85012 | 10253 ft | 362 kts | 149° |
| 2026-05-05 16:57 | 42.31423 | 11.86856 | 9595 ft | 358 kts | 149° |
| 2026-05-05 16:57 | 42.29353 | 11.88676 | 8818 ft | 351 kts | 149° |
| 2026-05-05 16:57 | 42.27336 | 11.90448 | 8151 ft | 340 kts | 149° |
| 2026-05-05 16:57 | 42.25401 | 11.92146 | 7518 ft | 331 kts | 149° |
| 2026-05-05 16:58 | 42.23499 | 11.93815 | 6889 ft | 323 kts | 148° |
| 2026-05-05 16:58 | 42.21642 | 11.95444 | 6261 ft | 315 kts | 148° |
| 2026-05-05 16:58 | 42.19823 | 11.97036 | 5584 ft | 307 kts | 148° |
| 2026-05-05 16:58 | 42.18055 | 11.98582 | 5012 ft | 297 kts | 148° |
| 2026-05-05 16:59 | 42.16355 | 12.00069 | 4609 ft | 283 kts | 148° |
| 2026-05-05 16:59 | 42.14759 | 12.01466 | 4403 ft | 264 kts | 148° |
| 2026-05-05 16:59 | 42.13275 | 12.02765 | 4241 ft | 246 kts | 148° |
| 2026-05-05 16:59 | 42.11906 | 12.04035 | 4142 ft | 234 kts | 142° |
| 2026-05-05 17:00 | 42.10775 | 12.05541 | 4036 ft | 223 kts | 135° |
| 2026-05-05 17:00 | 42.09768 | 12.07045 | 4015 ft | 208 kts | 135° |
| 2026-05-05 17:00 | 42.08895 | 12.08335 | 3932 ft | 196 kts | 135° |
| 2026-05-05 17:00 | 42.07957 | 12.09705 | 3490 ft | 203 kts | 135° |
| 2026-05-05 17:01 | 42.06999 | 12.11099 | 3210 ft | 201 kts | 135° |
| 2026-05-05 17:01 | 42.06063 | 12.12468 | 3039 ft | 195 kts | 135° |
| 2026-05-05 17:01 | 42.05131 | 12.13831 | 2903 ft | 202 kts | 135° |
| 2026-05-05 17:01 | 42.04187 | 12.15213 | 2783 ft | 200 kts | 135° |
| 2026-05-05 17:02 | 42.03246 | 12.16591 | 2669 ft | 201 kts | 135° |
| 2026-05-05 17:02 | 42.02296 | 12.17941 | 2553 ft | 200 kts | 141° |
| 2026-05-05 17:02 | 42.01165 | 12.18969 | 2524 ft | 190 kts | 155° |
| 2026-05-05 17:02 | 41.99978 | 12.19640 | 2529 ft | 184 kts | 161° |
| 2026-05-05 17:03 | 41.98796 | 12.20173 | 2523 ft | 172 kts | 163° |
| 2026-05-05 17:03 | 41.97658 | 12.20657 | 2526 ft | 178 kts | 163° |
| 2026-05-05 17:03 | 41.96475 | 12.21155 | 2438 ft | 178 kts | 163° |
| 2026-05-05 17:03 | 41.95303 | 12.21648 | 2200 ft | 175 kts | 163° |
| 2026-05-05 17:04 | 41.94154 | 12.22132 | 1969 ft | 173 kts | 163° |
| 2026-05-05 17:04 | 41.93007 | 12.22615 | 1725 ft | 171 kts | 164° |
| 2026-05-05 17:04 | 41.91867 | 12.23095 | 1495 ft | 169 kts | 163° |
| 2026-05-05 17:04 | 41.90801 | 12.23545 | 1284 ft | 151 kts | 164° |
| 2026-05-05 17:05 | 41.89862 | 12.23941 | 1087 ft | 132 kts | 165° |
| 2026-05-05 17:05 | 41.89028 | 12.24291 | 901 ft | 129 kts | 165° |
| 2026-05-05 17:05 | 41.88187 | 12.24632 | 721 ft | 121 kts | 165° |
| 2026-05-05 17:05 | 41.87332 | 12.24974 | 591 ft | 132 kts | 162° |
| 2026-05-05 17:06 | 41.86506 | 12.25337 | 474 ft | 122 kts | 160° |
| 2026-05-05 17:06 | 41.85707 | 12.25679 | 310 ft | 125 kts | 160° |
| 2026-05-05 17:06 | 41.84875 | 12.26036 | 143 ft | 122 kts | 161° |
| 2026-05-05 17:06 | 41.84095 | 12.26357 | 22 ft | 109 kts | 161° |
| 2026-05-05 17:07 | 41.83485 | 12.26618 | 13 ft | 69 kts | 161° |
| 2026-05-05 17:07 | 41.83106 | 12.26770 | 10 ft | 51 kts | 161° |
| 2026-05-05 17:07 | 41.82779 | 12.26870 | 14 ft | 47 kts | 175° |
| 2026-05-05 17:07 | 41.82466 | 12.26799 | 10 ft | 45 kts | 188° |
| 2026-05-05 17:08 | 41.82195 | 12.26831 | 10 ft | 30 kts | 161° |
| 2026-05-05 17:08 | 41.82012 | 12.26913 | 10 ft | 31 kts | 162° |
| 2026-05-05 17:08 | 41.81809 | 12.26994 | 13 ft | 30 kts | 165° |
| 2026-05-05 17:08 | 41.81623 | 12.27070 | 11 ft | 20 kts | 166° |
| 2026-05-05 17:09 | 41.81569 | 12.27094 | 11 ft | 9 kts | 161° |
| 2026-05-05 17:09 | 41.81499 | 12.27125 | 11 ft | 12 kts | 162° |
| 2026-05-05 17:09 | 41.81409 | 12.27163 | 11 ft | 15 kts | 162° |
| 2026-05-05 17:09 | 41.81303 | 12.27207 | 13 ft | 17 kts | 162° |
| 2026-05-05 17:10 | 41.81180 | 12.27255 | 12 ft | 19 kts | 163° |
| 2026-05-05 17:10 | 41.81046 | 12.27312 | 14 ft | 21 kts | 162° |
| 2026-05-05 17:10 | 41.80898 | 12.27349 | 12 ft | 21 kts | 187° |
| 2026-05-05 17:10 | 41.80800 | 12.27328 | 12 ft | 0 kts | 189° |
| 2026-05-05 17:11 | 41.80788 | 12.27325 | 12 ft | 4 kts | 190° |
| 2026-05-05 17:11 | 41.80743 | 12.27313 | 12 ft | 9 kts | 191° |
| 2026-05-05 17:11 | 41.80684 | 12.27277 | 14 ft | 11 kts | 212° |
| 2026-05-05 17:11 | 41.80642 | 12.27187 | 14 ft | 13 kts | 250° |
| 2026-05-05 17:12 | 41.80608 | 12.27064 | 13 ft | 16 kts | 250° |
| 2026-05-05 17:12 | 41.80568 | 12.26915 | 14 ft | 19 kts | 250° |
| 2026-05-05 17:12 | 41.80522 | 12.26743 | 14 ft | 21 kts | 250° |
| 2026-05-05 17:12 | 41.80472 | 12.26565 | 15 ft | 19 kts | 249° |
| 2026-05-05 17:13 | 41.80429 | 12.26405 | 16 ft | 16 kts | 250° |
| 2026-05-05 17:13 | 41.80393 | 12.26276 | 14 ft | 0 kts | 250° |
| 2026-05-05 17:16 | 41.80391 | 12.26267 | 14 ft | 3 kts | 250° |
| 2026-05-05 17:16 | 41.80377 | 12.26216 | 14 ft | 9 kts | 250° |
| 2026-05-05 17:16 | 41.80333 | 12.26113 | 14 ft | 16 kts | 217° |
| 2026-05-05 17:17 | 41.80210 | 12.26033 | 14 ft | 22 kts | 204° |
| 2026-05-05 17:17 | 41.80055 | 12.25937 | 16 ft | 27 kts | 204° |
| 2026-05-05 17:17 | 41.79877 | 12.25827 | 15 ft | 29 kts | 209° |
| 2026-05-05 17:17 | 41.79763 | 12.25748 | 15 ft | 10 kts | 202° |
| 2026-05-05 17:18 | 41.79689 | 12.25700 | 14 ft | 12 kts | 207° |
| 2026-05-05 17:18 | 41.79682 | 12.25639 | 14 ft | 7 kts | 288° |
| 2026-05-05 17:18 | 41.79688 | 12.25622 | 16 ft | 2 kts | 291° |
| 2026-05-05 17:18 | 41.79689 | 12.25618 | 15 ft | 2 kts | 296° |
| 2026-05-05 17:19 | 41.79690 | 12.25617 | 15 ft | 0 kts | 295° |
| 2026-05-05 17:19 | 41.79690 | 12.25615 | 15 ft | 0 kts | 293° |